createdAt,value
2018-07-21T00:01:38.086Z,23.75
2018-07-21T00:04:07.423Z,23.62
2018-07-21T00:06:36.199Z,23.38
2018-07-21T00:09:08.296Z,22.91
2018-07-21T00:11:36.743Z,22.89
2018-07-21T00:14:05.241Z,23.04
2018-07-21T00:16:33.731Z,23.14
2018-07-21T00:19:02.191Z,23.15
2018-07-21T00:21:30.632Z,23.02
2018-07-21T00:23:59.174Z,23.17
2018-07-21T00:26:32.127Z,23.02
2018-07-21T00:29:00.673Z,23.06
2018-07-21T00:31:29.231Z,23.22
2018-07-21T00:33:57.995Z,23.17
2018-07-21T00:36:26.424Z,23.17
2018-07-21T00:38:54.918Z,23.09
2018-07-21T00:41:23.589Z,23.27
2018-07-21T00:43:52.023Z,23.13
2018-07-21T00:46:20.428Z,23.23
2018-07-21T00:48:49.098Z,23.22
2018-07-21T00:51:17.599Z,23.20
2018-07-21T00:53:47.235Z,23.15
2018-07-21T00:56:16.081Z,22.78
2018-07-21T00:58:44.503Z,22.80
2018-07-21T01:01:13.000Z,22.62
2018-07-21T01:03:41.664Z,22.64
2018-07-21T01:06:10.211Z,22.64
2018-07-21T01:08:38.827Z,22.68
2018-07-21T01:11:07.495Z,22.58
2018-07-21T01:13:35.985Z,22.59
2018-07-21T01:16:04.416Z,22.48
2018-07-21T01:18:32.891Z,22.59
2018-07-21T01:21:01.384Z,22.71
2018-07-21T01:23:29.837Z,22.69
2018-07-21T01:25:58.267Z,22.53
2018-07-21T01:28:26.734Z,22.54
2018-07-21T01:30:55.119Z,22.53
2018-07-21T01:33:24.106Z,22.36
2018-07-21T01:35:52.770Z,22.22
2018-07-21T01:38:21.206Z,21.94
2018-07-21T01:40:50.096Z,21.94
2018-07-21T01:43:18.678Z,22.11
2018-07-21T01:45:47.376Z,22.20
2018-07-21T01:48:15.987Z,22.14
2018-07-21T01:50:44.419Z,22.01
2018-07-21T01:53:12.915Z,22.06
2018-07-21T01:55:41.422Z,22.08
2018-07-21T01:58:09.893Z,22.17
2018-07-21T02:00:38.381Z,22.20
2018-07-21T02:03:07.235Z,22.39
2018-07-21T02:05:35.711Z,22.54
2018-07-21T02:08:04.118Z,22.61
2018-07-21T02:10:32.582Z,22.55
2018-07-21T02:13:01.064Z,22.65
2018-07-21T02:15:29.550Z,22.67
2018-07-21T02:17:58.127Z,22.77
2018-07-21T02:20:26.537Z,22.47
2018-07-21T02:22:55.060Z,22.38
2018-07-21T02:25:23.703Z,22.34
2018-07-21T02:27:52.702Z,22.28
2018-07-21T02:30:21.122Z,22.20
2018-07-21T02:32:49.816Z,22.31
2018-07-21T02:35:18.320Z,22.35
2018-07-21T02:37:46.751Z,22.43
2018-07-21T02:40:15.344Z,22.56
2018-07-21T02:42:43.808Z,22.76
2018-07-21T02:45:12.360Z,23.05
2018-07-21T02:47:40.851Z,23.00
2018-07-21T02:50:09.286Z,23.20
2018-07-21T02:52:37.807Z,23.12
2018-07-21T02:55:06.310Z,22.56
2018-07-21T02:57:34.804Z,22.18
2018-07-21T03:00:03.308Z,21.97
2018-07-21T03:02:31.827Z,21.62
2018-07-21T03:05:00.244Z,21.60
2018-07-21T03:07:28.740Z,21.31
2018-07-21T03:09:57.236Z,21.39
2018-07-21T03:12:25.724Z,21.49
2018-07-21T03:14:54.169Z,21.21
2018-07-21T03:17:22.695Z,20.97
2018-07-21T03:19:51.112Z,21.45
2018-07-21T03:22:19.649Z,21.71
2018-07-21T03:24:48.179Z,21.53
2018-07-21T03:27:16.595Z,21.44
2018-07-21T03:29:45.092Z,21.45
2018-07-21T03:32:13.874Z,21.54
2018-07-21T03:34:42.277Z,20.93
2018-07-21T03:37:10.815Z,21.29
2018-07-21T03:39:39.283Z,21.29
2018-07-21T03:42:07.711Z,21.25
2018-07-21T03:44:36.171Z,21.46
2018-07-21T03:47:04.698Z,21.14
2018-07-21T03:49:33.163Z,21.14
2018-07-21T03:52:01.575Z,21.36
2018-07-21T03:54:30.068Z,21.57
2018-07-21T03:56:58.439Z,21.07
2018-07-21T03:59:26.928Z,21.11
2018-07-21T04:01:55.903Z,21.13
2018-07-21T04:04:24.324Z,21.11
2018-07-21T04:06:52.830Z,21.17
2018-07-21T04:09:21.651Z,21.18
2018-07-21T04:11:50.880Z,20.90
2018-07-21T04:14:19.347Z,20.88
2018-07-21T04:16:47.987Z,20.70
2018-07-21T04:19:16.411Z,20.92
2018-07-21T04:21:44.902Z,20.61
2018-07-21T04:24:13.581Z,21.09
2018-07-21T04:26:41.964Z,20.99
2018-07-21T04:29:10.487Z,21.08
2018-07-21T04:31:39.265Z,20.73
2018-07-21T04:34:07.721Z,20.66
2018-07-21T04:36:36.144Z,20.88
2018-07-21T04:39:07.885Z,20.95
2018-07-21T04:41:36.327Z,20.83
2018-07-21T04:44:05.806Z,20.55
2018-07-21T04:46:34.267Z,20.85
2018-07-21T04:49:03.099Z,20.90
2018-07-21T04:51:31.607Z,21.06
2018-07-21T04:54:00.139Z,20.76
2018-07-21T04:56:28.667Z,20.89
2018-07-21T04:58:57.174Z,20.86
2018-07-21T05:01:25.995Z,20.96
2018-07-21T05:03:54.520Z,20.50
2018-07-21T05:06:23.023Z,21.11
2018-07-21T05:08:51.458Z,21.00
2018-07-21T05:11:19.898Z,21.04
2018-07-21T05:13:48.405Z,21.23
2018-07-21T05:16:16.931Z,21.26
2018-07-21T05:18:45.386Z,21.21
2018-07-21T05:21:13.790Z,20.73
2018-07-21T05:23:42.207Z,20.80
2018-07-21T05:26:10.675Z,20.90
2018-07-21T05:28:39.151Z,20.80
2018-07-21T05:31:08.031Z,20.85
2018-07-21T05:33:36.521Z,21.01
2018-07-21T05:36:04.939Z,21.03
2018-07-21T05:38:33.451Z,20.71
2018-07-21T05:41:02.165Z,20.76
2018-07-21T05:43:30.659Z,20.57
2018-07-21T05:45:59.399Z,20.49
2018-07-21T05:48:27.868Z,20.23
2018-07-21T05:50:56.315Z,20.68
2018-07-21T05:53:24.867Z,20.20
2018-07-21T05:55:53.295Z,20.80
2018-07-21T05:58:21.948Z,20.62
2018-07-21T06:00:50.603Z,20.94
2018-07-21T06:03:19.091Z,20.96
2018-07-21T06:05:47.581Z,20.45
2018-07-21T06:08:16.032Z,20.68
2018-07-21T06:10:44.467Z,20.35
2018-07-21T06:13:12.979Z,20.43
2018-07-21T06:15:41.641Z,20.27
2018-07-21T06:18:10.194Z,20.46
2018-07-21T06:20:38.642Z,20.55
2018-07-21T06:23:07.323Z,20.43
2018-07-21T06:25:35.751Z,20.49
2018-07-21T06:28:04.230Z,20.50
2018-07-21T06:30:32.942Z,20.61
2018-07-21T06:33:01.440Z,20.53
2018-07-21T06:35:29.999Z,20.37
2018-07-21T06:37:58.756Z,20.47
2018-07-21T06:40:27.239Z,20.54
2018-07-21T06:42:55.827Z,20.84
2018-07-21T06:45:24.492Z,20.89
2018-07-21T06:47:52.959Z,20.82
2018-07-21T06:50:21.419Z,20.90
2018-07-21T06:52:50.071Z,20.99
2018-07-21T06:55:18.471Z,21.11
2018-07-21T06:57:46.891Z,21.17
2018-07-21T07:00:15.361Z,21.23
2018-07-21T07:02:43.855Z,21.22
2018-07-21T07:05:12.337Z,21.49
2018-07-21T07:07:41.035Z,21.38
2018-07-21T07:10:09.465Z,21.40
2018-07-21T07:12:37.975Z,21.36
2018-07-21T07:15:06.499Z,21.41
2018-07-21T07:17:34.964Z,21.83
2018-07-21T07:20:03.489Z,21.55
2018-07-21T07:22:31.959Z,21.48
2018-07-21T07:25:00.413Z,21.56
2018-07-21T07:27:28.946Z,21.70
2018-07-21T07:29:57.335Z,21.93
2018-07-21T07:32:25.904Z,21.78
2018-07-21T07:34:54.410Z,21.82
2018-07-21T07:37:23.175Z,21.87
2018-07-21T07:39:51.583Z,21.56
2018-07-21T07:42:20.076Z,21.33
2018-07-21T07:44:48.622Z,21.30
2018-07-21T07:47:17.051Z,21.15
2018-07-21T07:49:45.466Z,21.18
2018-07-21T07:52:14.250Z,21.27
2018-07-21T07:54:42.782Z,21.35
2018-07-21T07:57:11.255Z,21.48
2018-07-21T07:59:39.807Z,21.28
2018-07-21T08:02:08.227Z,21.23
2018-07-21T08:04:36.876Z,21.37
2018-07-21T08:07:05.463Z,21.33
2018-07-21T08:09:33.938Z,21.38
2018-07-21T08:12:02.447Z,21.47
2018-07-21T08:14:30.961Z,21.69
2018-07-21T08:16:59.423Z,21.75
2018-07-21T08:19:27.919Z,21.74
2018-07-21T08:21:56.420Z,21.59
2018-07-21T08:24:24.891Z,21.91
2018-07-21T08:26:53.386Z,21.74
2018-07-21T08:29:21.945Z,21.68
2018-07-21T08:31:50.395Z,21.81
2018-07-21T08:34:18.808Z,21.78
2018-07-21T08:36:47.323Z,21.97
2018-07-21T08:39:15.754Z,21.96
2018-07-21T08:41:44.250Z,21.83
2018-07-21T08:44:12.748Z,21.78
2018-07-21T08:46:41.271Z,21.89
2018-07-21T08:49:09.719Z,21.82
2018-07-21T08:51:38.267Z,21.89
2018-07-21T08:54:06.783Z,22.11
2018-07-21T08:56:35.250Z,22.30
2018-07-21T08:59:04.079Z,22.48
2018-07-21T09:01:32.512Z,22.35
2018-07-21T09:04:00.979Z,22.39
2018-07-21T09:06:29.440Z,22.51
2018-07-21T09:08:57.891Z,22.55
2018-07-21T09:11:26.392Z,22.35
2018-07-21T09:13:55.051Z,22.41
2018-07-21T09:16:23.595Z,22.63
2018-07-21T09:18:52.002Z,22.62
2018-07-21T09:21:20.632Z,23.09
2018-07-21T09:23:48.995Z,22.64
2018-07-21T09:26:17.467Z,22.58
2018-07-21T09:28:45.979Z,22.63
2018-07-21T09:31:14.423Z,22.81
2018-07-21T09:33:42.955Z,22.64
2018-07-21T09:36:11.383Z,22.58
2018-07-21T09:38:39.799Z,22.57
2018-07-21T09:41:08.311Z,22.70
2018-07-21T09:43:36.967Z,22.68
2018-07-21T09:46:06.441Z,22.62
2018-07-21T09:48:35.032Z,22.55
2018-07-21T09:51:03.991Z,22.40
2018-07-21T09:53:32.433Z,22.50
2018-07-21T09:56:00.992Z,22.50
2018-07-21T09:58:29.416Z,22.78
2018-07-21T10:01:01.882Z,22.45
2018-07-21T10:03:31.068Z,22.65
2018-07-21T10:05:59.482Z,22.89
2018-07-21T10:08:27.986Z,22.50
2018-07-21T10:10:56.622Z,22.86
2018-07-21T10:13:25.178Z,23.17
2018-07-21T10:15:53.665Z,23.16
2018-07-21T10:18:22.448Z,23.24
2018-07-21T10:20:50.879Z,23.22
2018-07-21T10:23:19.383Z,23.56
2018-07-21T10:25:53.456Z,23.31
2018-07-21T10:28:27.246Z,23.40
2018-07-21T10:30:55.892Z,24.09
2018-07-21T10:33:24.460Z,24.20
2018-07-21T10:35:52.921Z,24.60
2018-07-21T10:38:21.655Z,24.26
2018-07-21T10:40:50.104Z,24.15
2018-07-21T10:43:18.598Z,24.19
2018-07-21T10:45:47.103Z,24.39
2018-07-21T10:48:15.571Z,24.50
2018-07-21T10:50:44.087Z,24.79
2018-07-21T10:53:12.562Z,25.06
2018-07-21T10:55:40.979Z,25.08
2018-07-21T10:58:09.443Z,24.96
2018-07-21T11:00:38.364Z,25.09
2018-07-21T11:03:06.827Z,25.46
2018-07-21T11:05:35.256Z,25.48
2018-07-21T11:08:03.736Z,25.27
2018-07-21T11:10:32.278Z,25.72
2018-07-21T11:13:00.671Z,25.68
2018-07-21T11:15:29.310Z,25.85
2018-07-21T11:17:57.812Z,25.35
2018-07-21T11:20:26.299Z,25.10
2018-07-21T11:22:54.859Z,25.05
2018-07-21T11:25:23.483Z,24.32
2018-07-21T11:27:52.230Z,24.47
2018-07-21T11:30:20.701Z,24.18
2018-07-21T11:32:49.175Z,24.63
2018-07-21T11:35:17.628Z,24.80
2018-07-21T11:37:46.233Z,24.93
2018-07-21T11:40:14.645Z,25.32
2018-07-21T11:42:43.059Z,24.97
2018-07-21T11:45:11.560Z,24.89
2018-07-21T11:47:40.047Z,25.05
2018-07-21T11:50:08.563Z,25.42
2018-07-21T11:52:37.202Z,25.45
2018-07-21T11:55:06.055Z,25.34
2018-07-21T11:57:34.492Z,25.50
2018-07-21T12:00:03.315Z,25.58
2018-07-21T12:02:31.942Z,24.97
2018-07-21T12:05:00.403Z,24.68
2018-07-21T12:07:29.091Z,24.75
2018-07-21T12:09:57.489Z,24.77
2018-07-21T12:12:26.031Z,25.61
2018-07-21T12:14:54.514Z,24.88
2018-07-21T12:17:22.987Z,24.94
2018-07-21T12:19:51.496Z,25.43
2018-07-21T12:22:19.918Z,24.95
2018-07-21T12:24:48.351Z,25.10
2018-07-21T12:27:16.879Z,25.52
2018-07-21T12:29:45.524Z,25.23
2018-07-21T12:32:14.055Z,25.69
2018-07-21T12:34:42.555Z,26.14
2018-07-21T12:37:11.074Z,26.02
2018-07-21T12:39:39.531Z,26.02
2018-07-21T12:42:08.067Z,25.99
2018-07-21T12:44:36.892Z,25.64
2018-07-21T12:47:05.345Z,25.57
2018-07-21T12:49:33.759Z,25.47
2018-07-21T12:52:02.228Z,25.49
2018-07-21T12:54:30.709Z,25.47
2018-07-21T12:56:59.095Z,25.81
2018-07-21T12:59:27.599Z,26.06
2018-07-21T13:01:56.086Z,25.50
2018-07-21T13:04:24.533Z,25.78
2018-07-21T13:06:53.190Z,26.07
2018-07-21T13:09:21.678Z,25.46
2018-07-21T13:11:50.197Z,25.45
2018-07-21T13:14:18.924Z,24.96
2018-07-21T13:16:47.351Z,25.16
2018-07-21T13:19:15.767Z,25.33
2018-07-21T13:21:44.243Z,25.37
2018-07-21T13:24:12.736Z,25.25
2018-07-21T13:26:41.222Z,25.06
2018-07-21T13:29:09.743Z,25.28
2018-07-21T13:31:38.295Z,25.44
2018-07-21T13:34:06.695Z,25.52
2018-07-21T13:36:35.337Z,25.62
2018-07-21T13:39:04.103Z,25.43
2018-07-21T13:41:32.602Z,25.47
2018-07-21T13:44:01.123Z,25.36
2018-07-21T13:46:29.620Z,25.66
2018-07-21T13:48:58.127Z,25.77
2018-07-21T13:51:26.559Z,25.76
2018-07-21T13:53:55.136Z,25.81
2018-07-21T13:56:23.676Z,25.51
2018-07-21T13:58:52.158Z,25.73
2018-07-21T14:01:20.631Z,25.85
2018-07-21T14:03:49.031Z,25.88
2018-07-21T14:06:18.027Z,25.91
2018-07-21T14:08:46.447Z,25.90
2018-07-21T14:11:14.933Z,26.14
2018-07-21T14:13:43.447Z,26.05
2018-07-21T14:16:11.945Z,26.48
2018-07-21T14:18:40.442Z,26.34
2018-07-21T14:21:08.932Z,25.89
2018-07-21T14:23:37.390Z,26.25
2018-07-21T14:26:05.831Z,25.88
2018-07-21T14:28:34.663Z,26.23
2018-07-21T14:31:03.103Z,26.25
2018-07-21T14:33:31.615Z,26.17
2018-07-21T14:36:00.172Z,26.33
2018-07-21T14:38:28.611Z,26.09
2018-07-21T14:40:57.097Z,26.16
2018-07-21T14:43:25.587Z,26.47
2018-07-21T14:45:53.978Z,26.15
2018-07-21T14:48:22.450Z,26.16
2018-07-21T14:50:50.955Z,26.16
2018-07-21T14:53:19.423Z,25.99
2018-07-21T14:55:47.939Z,26.25
2018-07-21T14:58:16.579Z,26.55
2018-07-21T15:00:45.011Z,26.40
2018-07-21T15:03:13.524Z,26.14
2018-07-21T15:05:42.051Z,26.03
2018-07-21T15:08:10.508Z,26.11
2018-07-21T15:10:39.003Z,25.95
2018-07-21T15:13:07.632Z,26.36
2018-07-21T15:15:36.199Z,26.11
2018-07-21T15:18:04.720Z,26.33
2018-07-21T15:20:33.197Z,26.39
2018-07-21T15:23:01.967Z,26.14
2018-07-21T15:25:30.463Z,26.18
2018-07-21T15:27:59.031Z,26.15
2018-07-21T15:30:27.407Z,26.21
2018-07-21T15:32:55.874Z,26.15
2018-07-21T15:35:24.483Z,25.94
2018-07-21T15:37:52.944Z,26.09
2018-07-21T15:40:21.477Z,26.01
2018-07-21T15:42:50.203Z,26.01
2018-07-21T15:45:18.648Z,25.67
2018-07-21T15:47:47.262Z,25.41
2018-07-21T15:50:15.991Z,25.43
2018-07-21T15:52:44.423Z,25.24
2018-07-21T15:55:12.912Z,25.24
2018-07-21T15:57:41.530Z,25.32
2018-07-21T16:00:10.252Z,25.18
2018-07-21T16:02:38.787Z,25.44
2018-07-21T16:05:07.299Z,25.34
2018-07-21T16:07:35.812Z,25.25
2018-07-21T16:10:04.959Z,25.28
2018-07-21T16:12:33.779Z,25.10
2018-07-21T16:15:03.867Z,25.10
2018-07-21T16:17:30.705Z,25.03
2018-07-21T16:19:59.452Z,24.93
2018-07-21T16:22:27.908Z,24.83
2018-07-21T16:24:56.361Z,24.95
2018-07-21T16:27:24.891Z,25.02
2018-07-21T16:29:53.324Z,24.93
2018-07-21T16:32:21.779Z,24.68
2018-07-21T16:34:50.269Z,24.58
2018-07-21T16:37:18.866Z,24.54
2018-07-21T16:39:47.463Z,24.37
2018-07-21T16:42:15.943Z,24.48
2018-07-21T16:44:44.455Z,24.57
2018-07-21T16:47:12.943Z,24.18
2018-07-21T16:49:41.604Z,24.47
2018-07-21T16:52:10.107Z,24.30
2018-07-21T16:54:38.595Z,24.47
2018-07-21T16:57:07.111Z,24.38
2018-07-21T16:59:35.634Z,24.63
2018-07-21T17:02:04.363Z,25.00
2018-07-21T17:04:33.064Z,24.28
2018-07-21T17:07:01.491Z,24.18
2018-07-21T17:09:29.995Z,24.14
2018-07-21T17:11:58.426Z,23.84
2018-07-21T17:14:26.969Z,23.78
2018-07-21T17:16:55.473Z,23.79
2018-07-21T17:19:24.127Z,23.88
2018-07-21T17:21:52.539Z,23.93
2018-07-21T17:24:21.058Z,24.18
2018-07-21T17:26:49.727Z,24.31
2018-07-21T17:29:18.122Z,24.23
2018-07-21T17:31:46.552Z,23.66
2018-07-21T17:34:15.031Z,23.82
2018-07-21T17:36:43.507Z,23.93
2018-07-21T17:39:12.427Z,24.07
2018-07-21T17:41:41.615Z,23.48
2018-07-21T17:44:10.144Z,23.26
2018-07-21T17:46:38.655Z,23.49
2018-07-21T17:49:07.475Z,23.10
2018-07-21T17:51:36.383Z,23.39
2018-07-21T17:54:04.927Z,23.12
2018-07-21T17:56:33.588Z,23.27
2018-07-21T17:59:02.015Z,23.02
2018-07-21T18:01:30.502Z,23.25
2018-07-21T18:03:59.299Z,22.72
2018-07-21T18:06:27.817Z,22.92
2018-07-21T18:08:56.252Z,22.93
2018-07-21T18:11:24.753Z,22.89
2018-07-21T18:13:53.158Z,22.81
2018-07-21T18:16:21.552Z,22.77
2018-07-21T18:18:50.439Z,22.76
2018-07-21T18:21:18.863Z,22.94
2018-07-21T18:23:47.351Z,23.01
2018-07-21T18:26:16.047Z,22.72
2018-07-21T18:28:44.553Z,22.53
2018-07-21T18:31:13.043Z,22.69
2018-07-21T18:33:41.515Z,22.70
2018-07-21T18:36:09.923Z,22.42
2018-07-21T18:38:38.752Z,23.11
2018-07-21T18:41:08.519Z,23.15
2018-07-21T18:43:36.975Z,23.09
2018-07-21T18:46:05.876Z,22.81
2018-07-21T18:48:34.539Z,22.67
2018-07-21T18:51:03.047Z,22.84
2018-07-21T18:53:31.543Z,22.80
2018-07-21T18:56:00.202Z,22.49
2018-07-21T18:58:28.742Z,22.26
2018-07-21T19:00:57.263Z,22.08
2018-07-21T19:03:25.771Z,22.01
2018-07-21T19:05:54.436Z,21.82
2018-07-21T19:08:24.868Z,21.75
2018-07-21T19:10:54.511Z,22.04
2018-07-21T19:13:22.911Z,22.13
2018-07-21T19:15:56.760Z,22.04
2018-07-21T19:18:25.207Z,22.26
2018-07-21T19:20:59.378Z,22.09
2018-07-21T19:23:27.830Z,21.70
2018-07-21T19:26:01.699Z,21.54
2018-07-21T19:28:30.203Z,22.01
2018-07-21T19:30:58.726Z,22.22
2018-07-21T19:33:27.176Z,21.80
2018-07-21T19:35:55.704Z,21.85
2018-07-21T19:38:24.179Z,21.76
2018-07-21T19:40:52.836Z,21.77
2018-07-21T19:43:21.296Z,21.78
2018-07-21T19:45:49.700Z,21.49
2018-07-21T19:48:18.188Z,21.39
2018-07-21T19:50:46.671Z,21.67
2018-07-21T19:53:15.155Z,21.57
2018-07-21T19:55:44.035Z,21.26
2018-07-21T19:58:12.503Z,21.10
2018-07-21T20:00:40.871Z,21.33
2018-07-21T20:03:09.514Z,21.37
2018-07-21T20:05:37.936Z,21.16
2018-07-21T20:08:06.435Z,21.11
2018-07-21T20:10:34.967Z,20.94
2018-07-21T20:13:03.407Z,20.74
2018-07-21T20:15:31.817Z,20.87
2018-07-21T20:18:00.340Z,20.80
2018-07-21T20:20:28.802Z,21.04
2018-07-21T20:22:57.309Z,20.76
2018-07-21T20:25:25.728Z,20.70
2018-07-21T20:27:54.143Z,20.56
2018-07-21T20:30:22.583Z,20.75
2018-07-21T20:32:51.072Z,20.68
2018-07-21T20:35:19.505Z,20.66
2018-07-21T20:37:47.952Z,20.73
2018-07-21T20:40:16.616Z,20.68
2018-07-21T20:42:45.048Z,20.48
2018-07-21T20:45:13.583Z,20.02
2018-07-21T20:47:42.099Z,19.52
2018-07-21T20:50:10.510Z,19.24
2018-07-21T20:52:39.037Z,19.44
2018-07-21T20:55:07.539Z,19.49
2018-07-21T20:57:35.987Z,19.50
2018-07-21T21:00:04.920Z,19.49
2018-07-21T21:02:33.483Z,19.43
2018-07-21T21:05:03.286Z,19.30
2018-07-21T21:07:31.728Z,19.12
2018-07-21T21:10:00.591Z,19.06
2018-07-21T21:12:29.160Z,18.97
2018-07-21T21:14:57.619Z,18.91
2018-07-21T21:17:26.199Z,18.79
2018-07-21T21:19:54.692Z,18.89
2018-07-21T21:22:23.249Z,18.79
2018-07-21T21:24:51.703Z,18.85
2018-07-21T21:27:20.159Z,18.89
2018-07-21T21:29:48.671Z,18.67
2018-07-21T21:32:17.083Z,18.68
2018-07-21T21:34:45.631Z,18.65
2018-07-21T21:37:14.147Z,18.35
2018-07-21T21:39:42.702Z,17.81
2018-07-21T21:42:11.173Z,18.27
2018-07-21T21:44:39.539Z,18.32
2018-07-21T21:47:08.218Z,18.48
2018-07-21T21:49:36.787Z,18.46
2018-07-21T21:52:05.180Z,18.20
2018-07-21T21:54:33.807Z,18.22
2018-07-21T21:57:02.325Z,18.14
2018-07-21T21:59:30.750Z,18.31
2018-07-21T22:01:59.371Z,18.39
2018-07-21T22:04:27.849Z,18.41
2018-07-21T22:06:56.283Z,18.46
2018-07-21T22:09:24.843Z,18.31
2018-07-21T22:11:53.609Z,17.99
2018-07-21T22:14:22.115Z,18.04
2018-07-21T22:16:50.575Z,18.05
2018-07-21T22:19:19.053Z,18.17
2018-07-21T22:21:47.558Z,18.16
2018-07-21T22:24:16.224Z,18.23
2018-07-21T22:26:44.691Z,18.25
2018-07-21T22:29:13.144Z,17.91
2018-07-21T22:31:41.931Z,17.88
2018-07-21T22:34:10.356Z,17.79
2018-07-21T22:36:38.811Z,17.89
2018-07-21T22:39:10.543Z,17.97
2018-07-21T22:41:38.987Z,17.76
2018-07-21T22:44:07.431Z,17.78
2018-07-21T22:46:36.019Z,17.71
2018-07-21T22:49:04.619Z,17.51
2018-07-21T22:51:33.092Z,17.36
2018-07-21T22:54:01.581Z,17.03
2018-07-21T22:56:29.992Z,17.16
2018-07-21T22:58:58.483Z,17.22
2018-07-21T23:01:27.227Z,17.23
2018-07-21T23:03:55.731Z,17.18
2018-07-21T23:06:24.643Z,17.18
2018-07-21T23:08:53.151Z,17.31
2018-07-21T23:11:21.615Z,17.18
2018-07-21T23:13:50.320Z,17.02
2018-07-21T23:16:18.878Z,17.22
2018-07-21T23:18:47.258Z,17.39
2018-07-21T23:21:15.663Z,17.35
2018-07-21T23:23:44.176Z,17.48
2018-07-21T23:26:12.584Z,17.55
2018-07-21T23:28:41.108Z,17.60
2018-07-21T23:31:10.691Z,17.43
2018-07-21T23:33:39.196Z,17.24
2018-07-21T23:36:07.691Z,17.00
2018-07-21T23:38:36.313Z,17.08
2018-07-21T23:41:04.739Z,17.27
2018-07-21T23:43:33.151Z,17.20
2018-07-21T23:46:01.643Z,17.48
2018-07-21T23:48:30.136Z,17.49
2018-07-21T23:50:58.588Z,17.99
2018-07-21T23:53:27.339Z,17.91
2018-07-21T23:55:55.865Z,17.61
2018-07-21T23:58:24.459Z,17.56
